Time;durP1;ratioP1;P1;durP2;ratioP2;P2;SDS_P1;SDS_P2;PMS_P1;PMS_P2;Temp;Humidity;BMP_temperature;BMP_pressure;BME280_temperature;BME280_humidity;BME280_pressure;Samples;Min_cycle;Max_cycle;Signal;HPM_P1;HPM_P2
2021/11/24 00:00:27;;;;;;;10.30;6.55;;;;;;;7.54;100.00;102747.72;4994781;28;20054;-48
2021/11/24 00:02:55;;;;;;;10.07;6.38;;;;;;;7.53;100.00;102746.03;5004533;28;20642;-43
2021/11/24 00:05:23;;;;;;;9.43;6.05;;;;;;;7.55;100.00;102749.38;4994869;28;20046;-46
2021/11/24 00:07:50;;;;;;;12.90;6.63;;;;;;;7.57;100.00;102740.00;4994726;28;20049;-47
2021/11/24 00:10:18;;;;;;;10.25;6.65;;;;;;;7.60;100.00;102739.63;4994684;28;20043;-48
2021/11/24 00:12:47;;;;;;;10.18;6.05;;;;;;;7.62;100.00;102734.81;5002027;28;20065;-46
2021/11/24 00:15:15;;;;;;;11.05;6.20;;;;;;;7.59;100.00;102732.50;4994993;28;20050;-48
2021/11/24 00:17:43;;;;;;;10.52;6.13;;;;;;;7.60;100.00;102728.78;4994767;28;20412;-48
2021/11/24 00:20:11;;;;;;;10.65;5.57;;;;;;;7.61;100.00;102729.63;4994508;28;20050;-48
2021/11/24 00:22:38;;;;;;;12.35;5.95;;;;;;;7.61;100.00;102727.72;4995551;28;20057;-47
2021/11/24 00:25:07;;;;;;;10.90;5.28;;;;;;;7.62;100.00;102732.09;4994482;28;20512;-46
2021/11/24 00:27:35;;;;;;;8.45;5.00;;;;;;;7.63;100.00;102727.53;4994504;28;20046;-44
2021/11/24 00:30:04;;;;;;;10.60;5.35;;;;;;;7.64;100.00;102731.91;4994296;28;20031;-47
2021/11/24 00:32:32;;;;;;;10.88;5.50;;;;;;;7.64;100.00;102723.78;4995116;28;20060;-45
2021/11/24 00:35:00;;;;;;;12.35;5.20;;;;;;;7.64;100.00;102727.31;4993997;28;20058;-47
2021/11/24 00:37:29;;;;;;;8.20;5.10;;;;;;;7.64;100.00;102732.75;4994167;28;20122;-46
2021/11/24 00:40:05;;;;;;;10.35;5.65;;;;;;;7.64;100.00;102730.03;4994245;28;20094;-46
2021/11/24 00:42:33;;;;;;;10.35;5.18;;;;;;;7.63;100.00;102722.94;5001271;28;20034;-45
2021/11/24 00:45:01;;;;;;;10.27;5.78;;;;;;;7.63;100.00;102719.41;4999294;28;20137;-47
2021/11/24 00:47:29;;;;;;;10.15;5.65;;;;;;;7.61;100.00;102722.31;4994359;28;20366;-48
2021/11/24 00:49:56;;;;;;;10.48;5.53;;;;;;;7.58;100.00;102725.44;4994215;28;20062;-47
2021/11/24 00:52:24;;;;;;;8.57;4.80;;;;;;;7.58;100.00;102719.16;4994887;28;20038;-47
2021/11/24 00:54:51;;;;;;;9.45;5.10;;;;;;;7.57;100.00;102717.47;4993456;28;20042;-47
2021/11/24 00:57:19;;;;;;;11.77;5.63;;;;;;;7.56;100.00;102722.06;4993521;28;20065;-45
2021/11/24 00:59:46;;;;;;;8.23;4.75;;;;;;;7.54;100.00;102726.84;4993846;28;20042;-47
2021/11/24 01:02:14;;;;;;;6.78;4.55;;;;;;;7.50;100.00;102728.28;4993932;28;20092;-46
2021/11/24 01:04:42;;;;;;;9.10;5.25;;;;;;;7.47;100.00;102720.56;4994539;28;20038;-48
2021/11/24 01:07:10;;;;;;;10.45;5.45;;;;;;;7.45;100.00;102719.91;4993562;28;20053;-46
2021/11/24 01:09:37;;;;;;;8.52;4.80;;;;;;;7.45;100.00;102722.63;4993549;28;20052;-45
2021/11/24 01:12:05;;;;;;;9.70;5.40;;;;;;;7.47;100.00;102717.84;4993508;28;20043;-48
2021/11/24 01:14:34;;;;;;;8.80;5.07;;;;;;;7.46;100.00;102721.59;4994493;28;20081;-47
2021/11/24 01:17:01;;;;;;;8.95;4.68;;;;;;;7.44;100.00;102705.53;4993620;28;20117;-47
2021/11/24 01:19:29;;;;;;;8.52;4.80;;;;;;;7.46;100.00;102713.47;4993191;28;20042;-47
2021/11/24 01:21:56;;;;;;;7.88;4.60;;;;;;;7.45;100.00;102706.34;4993221;28;20386;-47
2021/11/24 01:24:24;;;;;;;7.47;4.43;;;;;;;7.45;100.00;102707.19;4994636;28;20050;-47
2021/11/24 01:26:52;;;;;;;9.23;4.85;;;;;;;7.45;100.00;102711.78;4993669;28;20042;-46
2021/11/24 01:29:19;;;;;;;7.22;4.25;;;;;;;7.46;100.00;102706.16;4993198;28;20493;-47
2021/11/24 01:31:47;;;;;;;8.90;4.78;;;;;;;7.48;100.00;102705.97;4993292;28;20035;-47
2021/11/24 01:34:14;;;;;;;7.22;4.32;;;;;;;7.49;100.00;102704.94;4993103;28;20058;-46
2021/11/24 01:36:42;;;;;;;7.75;4.20;;;;;;;7.53;100.00;102702.63;4994098;28;20096;-47
2021/11/24 01:39:10;;;;;;;8.50;4.72;;;;;;;7.54;100.00;102710.59;4993044;28;20039;-48
2021/11/24 01:41:38;;;;;;;11.40;5.10;;;;;;;7.54;100.00;102705.16;4993129;28;20053;-47
2021/11/24 01:44:06;;;;;;;7.03;4.43;;;;;;;7.54;100.00;102699.72;4993431;28;20042;-44
2021/11/24 01:46:33;;;;;;;7.45;4.63;;;;;;;7.54;100.00;102705.16;4994385;28;20054;-45
2021/11/24 01:49:01;;;;;;;10.55;4.78;;;;;;;7.55;100.00;102709.56;4992772;28;20045;-48
2021/11/24 01:51:29;;;;;;;7.85;4.90;;;;;;;7.56;100.00;102703.09;4992959;28;20046;-47
2021/11/24 01:53:56;;;;;;;8.32;4.70;;;;;;;7.56;100.00;102692.25;4992818;28;20038;-47
2021/11/24 01:56:24;;;;;;;8.50;4.70;;;;;;;7.56;100.00;102694.13;4994430;28;20516;-47
2021/11/24 01:58:51;;;;;;;9.73;4.68;;;;;;;7.54;100.00;102686.16;4996029;28;20046;-46
2021/11/24 02:01:19;;;;;;;8.20;4.65;;;;;;;7.52;100.00;102685.53;4993151;28;20054;-46
2021/11/24 02:03:47;;;;;;;6.78;4.30;;;;;;;7.51;100.00;102678.44;4992530;28;20050;-48
2021/11/24 02:06:15;;;;;;;8.52;4.72;;;;;;;7.51;100.00;102680.31;4992541;28;20046;-46
2021/11/24 02:08:43;;;;;;;8.45;4.78;;;;;;;7.51;100.00;102677.63;4994826;28;20047;-48
2021/11/24 02:11:10;;;;;;;8.90;4.43;;;;;;;7.51;100.00;102673.03;4979198;28;20050;-48
2021/11/24 02:13:38;;;;;;;7.90;4.50;;;;;;;7.51;100.00;102673.03;4990902;28;20069;-47
2021/11/24 02:16:06;;;;;;;6.85;4.40;;;;;;;7.50;100.00;102682.19;4992553;28;20393;-46
2021/11/24 02:18:33;;;;;;;9.40;5.15;;;;;;;7.51;100.00;102677.63;4993455;28;20035;-48
2021/11/24 02:21:01;;;;;;;9.13;5.10;;;;;;;7.50;100.00;102668.63;4996319;28;20053;-48
2021/11/24 02:23:29;;;;;;;9.18;5.10;;;;;;;7.50;100.00;102671.34;4992388;28;20481;-48
2021/11/24 02:25:56;;;;;;;9.80;5.38;;;;;;;7.51;100.00;102667.59;4992453;28;20053;-48
2021/11/24 02:28:24;;;;;;;10.20;4.63;;;;;;;7.53;100.00;102659.25;4995654;28;20045;-45
2021/11/24 02:30:51;;;;;;;7.85;4.90;;;;;;;7.51;100.00;102651.31;4997410;28;20049;-47
2021/11/24 02:33:19;;;;;;;10.55;5.53;;;;;;;7.49;100.00;102658.81;4992037;28;20572;-47
2021/11/24 02:35:47;;;;;;;9.40;5.10;;;;;;;7.49;100.00;102652.56;4992465;28;20413;-48
2021/11/24 02:38:16;;;;;;;8.50;4.72;;;;;;;7.50;100.00;102659.66;4992208;28;20049;-47
2021/11/24 02:40:44;;;;;;;11.15;4.78;;;;;;;7.49;100.00;102647.97;4996355;28;20042;-45
2021/11/24 02:43:11;;;;;;;7.70;4.85;;;;;;;7.49;100.00;102647.13;4993283;28;20606;-46
2021/11/24 02:45:39;;;;;;;7.85;5.30;;;;;;;7.47;100.00;102642.75;4992100;28;20417;-46
2021/11/24 02:48:07;;;;;;;8.98;5.22;;;;;;;7.46;100.00;102640.25;4992151;28;20050;-44
2021/11/24 02:50:34;;;;;;;8.23;5.20;;;;;;;7.43;100.00;102638.78;4993689;28;20042;-46
2021/11/24 02:53:02;;;;;;;8.45;5.10;;;;;;;7.38;100.00;102633.09;4992169;28;20050;-46
2021/11/24 02:55:30;;;;;;;7.78;5.15;;;;;;;7.37;100.00;102627.91;4992478;28;20057;-46
2021/11/24 02:57:58;;;;;;;7.60;5.13;;;;;;;7.36;100.00;102620.78;4992031;28;20046;-48
2021/11/24 03:00:28;;;;;;;12.95;5.85;;;;;;;7.37;100.00;102622.47;4995048;28;20147;-47
2021/11/24 03:02:56;;;;;;;10.38;6.07;;;;;;;7.39;100.00;102620.41;4999690;28;20042;-45
2021/11/24 03:05:26;;;;;;;10.57;6.20;;;;;;;7.41;100.00;102607.47;4992181;28;20044;-49
2021/11/24 03:07:58;;;;;;;11.57;6.60;;;;;;;7.40;100.00;102605.78;4992493;28;20390;-47
2021/11/24 03:10:26;;;;;;;11.00;5.90;;;;;;;7.39;100.00;102594.13;4992174;28;20049;-47
2021/11/24 03:12:54;;;;;;;12.30;6.65;;;;;;;7.41;100.00;102593.91;4999281;28;20034;-47
2021/11/24 03:15:21;;;;;;;10.20;6.50;;;;;;;7.42;100.00;102587.44;4992188;28;20049;-49
2021/11/24 03:17:49;;;;;;;10.73;7.03;;;;;;;7.41;100.00;102583.91;4991764;28;20039;-47
2021/11/24 03:20:17;;;;;;;12.95;6.78;;;;;;;7.41;100.00;102585.78;4991932;28;20058;-44
2021/11/24 03:22:45;;;;;;;10.15;7.07;;;;;;;7.39;100.00;102577.00;4998299;28;20207;-48
2021/11/24 03:25:13;;;;;;;10.00;7.00;;;;;;;7.38;100.00;102569.91;4992139;28;20046;-47
2021/11/24 03:27:42;;;;;;;11.77;6.97;;;;;;;7.37;100.00;102566.34;4991716;28;20045;-47
2021/11/24 03:30:22;;;;;;;10.77;7.80;;;;;;;7.36;100.00;102569.25;4991909;28;20042;-47
2021/11/24 03:32:50;;;;;;;9.70;6.97;;;;;;;7.30;100.00;102565.50;4992876;28;20038;-48
2021/11/24 03:35:20;;;;;;;9.20;6.57;;;;;;;7.28;100.00;102559.44;4995389;28;20418;-48
2021/11/24 03:37:50;;;;;;;9.15;6.57;;;;;;;7.29;100.00;102560.28;4995375;28;20106;-49
2021/11/24 03:40:22;;;;;;;8.70;6.03;;;;;;;7.29;100.00;102554.84;4995535;28;20076;-46
2021/11/24 03:42:51;;;;;;;8.20;5.90;;;;;;;7.29;100.00;102555.69;4996374;28;20034;-47
2021/11/24 03:45:25;;;;;;;8.25;5.90;;;;;;;7.31;100.00;102552.78;4995114;28;20064;-48
2021/11/24 03:47:53;;;;;;;8.43;6.00;;;;;;;7.34;100.00;102549.66;4994609;28;20066;-47
2021/11/24 03:50:21;;;;;;;9.18;6.50;;;;;;;7.33;100.00;102550.69;4995326;28;20061;-47
2021/11/24 03:52:49;;;;;;;9.35;5.82;;;;;;;7.32;100.00;102560.72;4995964;28;20374;-48
2021/11/24 03:55:17;;;;;;;9.55;6.55;;;;;;;7.29;100.00;102554.84;4995400;28;20042;-47
2021/11/24 03:57:45;;;;;;;8.93;6.40;;;;;;;7.24;100.00;102550.88;4994340;28;20058;-47
2021/11/24 04:00:23;;;;;;;9.25;6.60;;;;;;;7.22;100.00;102549.41;4994964;28;20046;-47
2021/11/24 04:02:51;;;;;;;9.45;6.95;;;;;;;7.21;100.00;102543.13;4998003;28;20164;-47
2021/11/24 04:05:19;;;;;;;10.70;7.63;;;;;;;7.19;100.00;102544.38;4995230;28;20038;-47
2021/11/24 04:07:47;;;;;;;10.50;7.78;;;;;;;7.19;100.00;102545.25;4995314;28;20046;-48
2021/11/24 04:10:15;;;;;;;10.55;7.63;;;;;;;7.13;100.00;102539.78;4995033;28;20038;-46
2021/11/24 04:12:43;;;;;;;10.80;7.10;;;;;;;7.14;100.00;102541.44;4994631;28;20508;-50
2021/11/24 04:15:16;;;;;;;9.77;7.80;;;;;;;7.17;100.00;102538.34;5007668;28;20486;-47
2021/11/24 04:17:44;;;;;;;10.13;7.47;;;;;;;7.20;100.00;102537.94;4994528;28;20054;-43
2021/11/24 04:20:15;;;;;;;10.20;7.65;;;;;;;7.22;100.00;102528.56;4994509;28;20046;-47
2021/11/24 04:22:43;;;;;;;10.88;7.65;;;;;;;7.25;100.00;102522.72;4994766;28;20069;-47
2021/11/24 04:25:11;;;;;;;10.52;7.00;;;;;;;7.27;100.00;102525.25;5006275;28;20048;-48
2021/11/24 04:27:39;;;;;;;9.55;6.93;;;;;;;7.30;100.00;102532.97;5006248;28;20048;-44
2021/11/24 04:30:08;;;;;;;11.50;7.80;;;;;;;7.32;100.00;102521.94;4994496;28;20061;-47
2021/11/24 04:32:36;;;;;;;10.38;7.85;;;;;;;7.33;100.00;102524.41;4994386;28;20212;-46
2021/11/24 04:35:04;;;;;;;12.05;8.18;;;;;;;7.29;100.00;102515.03;4995348;28;20065;-48
2021/11/24 04:37:32;;;;;;;15.00;8.50;;;;;;;7.25;100.00;102517.31;4994213;28;20038;-48
2021/11/24 04:39:59;;;;;;;12.23;8.43;;;;;;;7.23;100.00;102513.13;4994332;28;20046;-47
2021/11/24 04:42:27;;;;;;;11.68;8.27;;;;;;;7.23;100.00;102513.94;4992748;28;20552;-47
2021/11/24 04:44:55;;;;;;;12.15;8.75;;;;;;;7.25;100.00;102516.47;4993524;28;20073;-47
2021/11/24 04:47:23;;;;;;;12.15;8.85;;;;;;;7.25;100.00;102517.31;5000190;28;20046;-48
2021/11/24 04:49:51;;;;;;;12.00;8.82;;;;;;;7.25;100.00;102509.16;4995536;28;20046;-47
2021/11/24 04:52:18;;;;;;;10.77;8.52;;;;;;;7.24;100.00;102504.81;4994238;28;20050;-47
2021/11/24 04:54:46;;;;;;;12.57;7.90;;;;;;;7.21;100.00;102507.91;4993855;28;20045;-46
2021/11/24 04:57:14;;;;;;;11.73;8.40;;;;;;;7.21;100.00;102505.19;4995713;28;20437;-47
2021/11/24 04:59:43;;;;;;;13.35;8.40;;;;;;;7.23;100.00;102502.28;4993234;28;20057;-47
2021/11/24 05:02:11;;;;;;;13.27;8.60;;;;;;;7.25;100.00;102501.03;4993983;28;20043;-47
2021/11/24 05:04:39;;;;;;;12.57;9.07;;;;;;;7.29;100.00;102506.91;4993865;28;20383;-45
2021/11/24 05:07:07;;;;;;;11.45;8.65;;;;;;;7.32;100.00;102500.22;5000768;28;20050;-47
2021/11/24 05:09:40;;;;;;;12.57;9.35;;;;;;;7.33;100.00;102491.03;4988436;28;20070;-47
2021/11/24 05:12:08;;;;;;;12.20;9.10;;;;;;;7.33;100.00;102502.72;4993659;28;20046;-48
2021/11/24 05:14:37;;;;;;;14.70;10.40;;;;;;;7.33;100.00;102500.00;4993602;28;20066;-47
2021/11/24 05:17:07;;;;;;;14.68;10.40;;;;;;;7.30;100.00;102496.88;4994311;28;20054;-47
2021/11/24 05:19:38;;;;;;;15.15;10.48;;;;;;;7.30;100.00;102499.59;5000098;28;20161;-49
2021/11/24 05:22:05;;;;;;;14.23;10.45;;;;;;;7.32;100.00;102494.81;4993458;28;20102;-49
2021/11/24 05:24:33;;;;;;;14.65;11.30;;;;;;;7.32;100.00;102495.63;4993240;28;20038;-49
2021/11/24 05:27:01;;;;;;;13.02;10.02;;;;;;;7.27;100.00;102492.72;4993864;28;20045;-48
2021/11/24 05:29:29;;;;;;;12.15;9.88;;;;;;;7.24;100.00;102487.72;4992893;28;20042;-48
2021/11/24 05:31:56;;;;;;;9.95;8.35;;;;;;;7.23;100.00;102484.13;4993300;28;20046;-48
2021/11/24 05:34:24;;;;;;;11.95;8.90;;;;;;;7.23;100.00;102480.59;4993143;28;20062;-48
2021/11/24 05:36:52;;;;;;;11.07;8.98;;;;;;;7.23;100.00;102486.84;4994293;28;20049;-49
2021/11/24 05:39:19;;;;;;;12.57;8.93;;;;;;;7.24;100.00;102480.41;4994287;28;20051;-49
2021/11/24 05:41:47;;;;;;;10.88;8.45;;;;;;;7.27;100.00;102475.63;4991727;28;20445;-48
2021/11/24 05:44:26;;;;;;;11.77;9.02;;;;;;;7.28;100.00;102477.28;4992960;28;20042;-49
2021/11/24 05:47:00;;;;;;;12.23;9.57;;;;;;;7.29;100.00;102465.38;5002199;28;20100;-48
2021/11/24 05:49:29;;;;;;;13.07;9.80;;;;;;;7.30;100.00;102469.78;4996747;28;20050;-48
2021/11/24 05:51:58;;;;;;;11.98;9.52;;;;;;;7.27;100.00;102468.31;4992998;28;20061;-48
2021/11/24 05:54:25;;;;;;;13.38;10.68;;;;;;;7.28;100.00;102474.56;4992878;28;20053;-49
2021/11/24 05:56:53;;;;;;;15.38;11.23;;;;;;;7.23;100.00;102465.16;4992588;28;20049;-49
2021/11/24 05:59:21;;;;;;;15.32;11.25;;;;;;;7.18;100.00;102464.94;4993015;28;20042;-48
2021/11/24 06:01:48;;;;;;;15.55;11.88;;;;;;;7.12;100.00;102463.06;4992527;28;20034;-48
2021/11/24 06:04:16;;;;;;;14.50;11.25;;;;;;;7.09;100.00;102458.03;4993025;28;20121;-48
2021/11/24 06:06:45;;;;;;;14.27;11.02;;;;;;;7.11;100.00;102461.38;4997579;28;20097;-49
2021/11/24 06:09:13;;;;;;;13.77;11.23;;;;;;;7.13;100.00;102456.59;4992747;28;20046;-49
2021/11/24 06:11:41;;;;;;;15.00;11.40;;;;;;;7.15;100.00;102451.81;4992338;28;20046;-46
2021/11/24 06:14:08;;;;;;;14.73;11.38;;;;;;;7.19;100.00;102455.78;4992900;28;20053;-47
2021/11/24 06:16:36;;;;;;;15.30;11.88;;;;;;;7.21;100.00;102450.97;4993417;28;20038;-45
2021/11/24 06:19:03;;;;;;;14.18;11.55;;;;;;;7.18;100.00;102456.81;4992328;28;20577;-48
2021/11/24 06:21:31;;;;;;;13.98;11.43;;;;;;;7.10;100.00;102443.47;4992950;28;20789;-47
2021/11/24 06:23:59;;;;;;;16.67;11.65;;;;;;;7.03;100.00;102453.44;4992388;28;20042;-47
2021/11/24 06:26:26;;;;;;;15.07;11.65;;;;;;;6.99;100.00;102452.16;4992266;28;20070;-47
2021/11/24 06:28:54;;;;;;;15.25;11.60;;;;;;;6.96;100.00;102447.16;4993294;28;20072;-48
2021/11/24 06:31:25;;;;;;;15.02;11.68;;;;;;;6.94;100.00;102446.53;4992746;28;20050;-49
2021/11/24 06:33:56;;;;;;;13.93;11.60;;;;;;;6.94;100.00;102446.53;4992276;28;20105;-47
2021/11/24 06:36:37;;;;;;;14.07;10.90;;;;;;;6.98;100.00;102448.63;4993827;28;20089;-47
2021/11/24 06:39:05;;;;;;;13.73;10.65;;;;;;;7.01;100.00;102439.25;4992198;28;20056;-49
2021/11/24 06:41:33;;;;;;;15.27;11.77;;;;;;;7.04;100.00;102436.13;4991559;28;20055;-47
2021/11/24 06:44:01;;;;;;;14.75;11.25;;;;;;;7.07;100.00;102441.16;4991713;28;20049;-45
2021/11/24 06:46:29;;;;;;;14.52;11.13;;;;;;;7.08;100.00;102434.69;4996221;28;20040;-47
2021/11/24 06:48:56;;;;;;;16.35;11.77;;;;;;;7.07;100.00;102438.47;4300904;28;10000186;-48
2021/11/24 06:51:24;;;;;;;14.38;10.68;;;;;;;7.04;100.00;102438.84;4990207;28;20039;-49
2021/11/24 06:53:51;;;;;;;15.05;11.70;;;;;;;7.06;100.00;102447.59;4990220;28;20051;-48
2021/11/24 06:56:19;;;;;;;13.85;10.77;;;;;;;7.05;100.00;102445.94;4989260;28;20035;-47
2021/11/24 06:58:47;;;;;;;17.13;11.88;;;;;;;7.05;100.00;102443.25;4995125;28;20042;-48
2021/11/24 07:01:14;;;;;;;16.48;13.27;;;;;;;7.05;100.00;102440.53;4989685;28;20038;-49
2021/11/24 07:04:01;;;;;;;17.02;12.88;;;;;;;7.04;100.00;102442.38;4990103;28;20743;-47
2021/11/24 07:06:28;;;;;;;17.70;13.27;;;;;;;7.05;100.00;102435.09;4989757;28;20045;-46
2021/11/24 07:08:56;;;;;;;19.98;13.15;;;;;;;7.02;100.00;102430.94;4994224;28;20049;-47
2021/11/24 07:11:28;;;;;;;16.20;12.80;;;;;;;7.00;100.00;102432.19;4992969;28;20042;-46
2021/11/24 07:13:56;;;;;;;17.23;13.82;;;;;;;7.01;100.00;102436.56;4993502;28;20065;-47
2021/11/24 07:16:24;;;;;;;19.95;14.15;;;;;;;7.03;100.00;102426.34;4993377;28;20485;-49
2021/11/24 07:18:52;;;;;;;15.20;12.73;;;;;;;7.05;100.00;102435.09;4988487;28;20509;-49
2021/11/24 07:21:20;;;;;;;17.58;13.40;;;;;;;7.11;100.00;102436.16;4993084;28;20047;-49
2021/11/24 07:23:47;;;;;;;18.15;13.43;;;;;;;7.16;100.00;102436.38;5004437;28;20053;-49
2021/11/24 07:26:15;;;;;;;17.25;13.93;;;;;;;7.16;100.00;102437.19;4993452;28;20042;-48
2021/11/24 07:28:42;;;;;;;21.15;15.02;;;;;;;7.15;100.00;102434.72;4995189;28;20061;-50
2021/11/24 07:31:10;;;;;;;19.67;13.70;;;;;;;7.16;100.00;102433.66;4993508;28;20058;-49
2021/11/24 07:33:38;;;;;;;18.02;14.35;;;;;;;7.17;100.00;102433.47;4993198;28;20105;-47
2021/11/24 07:36:05;;;;;;;19.10;15.05;;;;;;;7.20;100.00;102430.34;4992114;28;20035;-51
2021/11/24 07:38:33;;;;;;;19.65;15.20;;;;;;;7.22;100.00;102425.53;4993084;28;20046;-47
2021/11/24 07:41:01;;;;;;;20.42;14.05;;;;;;;7.24;100.00;102428.06;4994100;28;20501;-48
2021/11/24 07:43:28;;;;;;;21.95;15.88;;;;;;;7.22;100.00;102436.38;4993184;28;20058;-50
2021/11/24 07:45:56;;;;;;;23.33;16.65;;;;;;;7.19;100.00;102425.97;4992821;28;20053;-47
2021/11/24 07:48:24;;;;;;;23.05;17.33;;;;;;;7.19;100.00;102434.09;4994061;28;20127;-49
2021/11/24 07:50:52;;;;;;;26.42;19.20;;;;;;;7.17;100.00;102433.47;4992805;28;20046;-50
2021/11/24 07:53:19;;;;;;;34.50;17.50;;;;;;;7.16;100.00;102429.06;4980652;28;20039;-49
2021/11/24 07:55:47;;;;;;;23.27;17.40;;;;;;;7.19;100.00;102425.97;4992752;28;20042;-49
2021/11/24 07:58:16;;;;;;;28.05;19.13;;;;;;;7.22;100.00;102425.53;4995317;28;20712;-47
2021/11/24 08:00:44;;;;;;;26.85;19.50;;;;;;;7.27;100.00;102415.97;5000307;28;20050;-47
2021/11/24 08:03:12;;;;;;;24.70;18.23;;;;;;;7.29;100.00;102420.13;4991635;28;20476;-48
2021/11/24 08:05:39;;;;;;;25.30;18.35;;;;;;;7.31;100.00;102417.19;4991164;28;20035;-49
2021/11/24 08:08:07;;;;;;;27.35;19.85;;;;;;;7.30;100.00;102412.84;4992304;28;20065;-49
2021/11/24 08:10:35;;;;;;;23.23;18.13;;;;;;;7.28;100.00;102412.19;5000197;28;20054;-49
2021/11/24 08:13:02;;;;;;;25.55;17.17;;;;;;;7.29;100.00;102409.28;4990885;28;20387;-50
2021/11/24 08:15:34;;;;;;;23.77;16.38;;;;;;;7.32;100.00;102408.88;4992647;28;20077;-49
2021/11/24 08:18:02;;;;;;;23.67;18.67;;;;;;;7.35;100.00;102408.44;4993099;28;20428;-52
2021/11/24 08:20:30;;;;;;;28.10;19.45;;;;;;;7.38;100.00;102401.78;4990978;28;20033;-49
2021/11/24 08:22:57;;;;;;;25.05;17.85;;;;;;;7.41;100.00;102406.81;4992196;28;20053;-50
2021/11/24 08:25:25;;;;;;;27.20;19.17;;;;;;;7.41;100.00;102404.09;4991726;28;20042;-49
2021/11/24 08:27:52;;;;;;;26.63;19.60;;;;;;;7.43;100.00;102400.13;4992107;28;20097;-49
2021/11/24 08:30:20;;;;;;;26.35;19.35;;;;;;;7.44;100.00;102387.41;4993662;28;20054;-49
2021/11/24 08:32:50;;;;;;;25.42;19.58;;;;;;;7.45;100.00;102386.34;4992372;28;20062;-46
2021/11/24 08:35:19;;;;;;;27.85;19.33;;;;;;;7.45;100.00;102372.78;4991857;28;20058;-48
2021/11/24 08:37:47;;;;;;;24.52;17.63;;;;;;;7.47;100.00;102378.84;4992036;28;20036;-48
2021/11/24 08:40:15;;;;;;;24.77;18.80;;;;;;;7.48;100.00;102369.69;4996661;28;20130;-48
2021/11/24 08:42:43;;;;;;;23.00;17.13;;;;;;;7.49;100.00;102371.34;4991923;28;20046;-47
2021/11/24 08:45:11;;;;;;;21.75;16.25;;;;;;;7.47;100.00;102374.25;4992288;28;20167;-48
2021/11/24 08:47:40;;;;;;;22.83;17.75;;;;;;;7.48;100.00;102372.38;4992168;28;20046;-47
2021/11/24 08:50:10;;;;;;;24.48;17.77;;;;;;;7.49;100.00;102371.34;4996708;28;20044;-47
2021/11/24 08:52:38;;;;;;;23.58;16.35;;;;;;;7.50;100.00;102362.13;4999797;28;20405;-46
2021/11/24 08:55:07;;;;;;;26.58;18.52;;;;;;;7.51;100.00;102363.00;4992851;28;20085;-50
2021/11/24 08:57:37;;;;;;;22.65;17.45;;;;;;;7.49;100.00;102376.75;4993578;28;20054;-47
2021/11/24 09:00:09;;;;;;;22.20;17.08;;;;;;;7.47;100.00;102371.53;4993523;28;20062;-44
2021/11/24 09:02:37;;;;;;;24.60;17.75;;;;;;;7.47;100.00;102376.13;4999483;28;20058;-48
2021/11/24 09:05:05;;;;;;;26.98;20.35;;;;;;;7.46;100.00;102371.75;4993489;28;20413;-47
2021/11/24 09:07:33;;;;;;;25.85;20.15;;;;;;;7.40;100.00;102369.88;4994053;28;20046;-48
2021/11/24 09:10:01;;;;;;;25.10;20.25;;;;;;;7.37;100.00;102373.00;4992388;28;20038;-47
2021/11/24 09:12:29;;;;;;;24.20;18.98;;;;;;;7.37;100.00;102375.72;4994575;28;20046;-48
2021/11/24 09:14:57;;;;;;;26.05;19.80;;;;;;;7.39;100.00;102374.47;4993266;28;20042;-50
2021/11/24 09:17:25;;;;;;;27.63;19.77;;;;;;;7.42;100.00;102365.91;4993551;28;20046;-46
2021/11/24 09:19:52;;;;;;;25.25;19.42;;;;;;;7.47;100.00;102373.41;4992795;28;20038;-47
2021/11/24 09:22:38;;;;;;;33.95;21.77;;;;;;;7.47;100.00;102368.81;4994314;28;20069;-47
2021/11/24 09:25:08;;;;;;;24.13;19.77;;;;;;;7.50;100.00;102361.31;4993631;28;20042;-47
2021/11/24 09:27:47;;;;;;;28.35;22.20;;;;;;;7.53;100.00;102361.75;4992721;28;20038;-50
2021/11/24 09:30:16;;;;;;;28.65;21.45;;;;;;;7.53;100.00;102364.44;4993590;28;20050;-47
2021/11/24 09:32:44;;;;;;;30.98;23.27;;;;;;;7.51;100.00;102352.97;4994152;28;20044;-47
2021/11/24 09:35:12;;;;;;;25.92;20.48;;;;;;;7.51;100.00;102355.69;4993457;28;20150;-48
2021/11/24 09:37:40;;;;;;;30.33;23.50;;;;;;;7.51;100.00;102346.72;4993350;28;20039;-45
2021/11/24 09:40:08;;;;;;;28.38;23.02;;;;;;;7.50;100.00;102345.03;4991747;28;20072;-48
2021/11/24 09:42:39;;;;;;;30.27;23.35;;;;;;;7.47;100.00;102347.13;4992990;28;20039;-44
2021/11/24 09:45:08;;;;;;;29.27;21.83;;;;;;;7.50;100.00;102339.63;4993345;28;20034;-47
2021/11/24 09:47:37;;;;;;;28.80;23.05;;;;;;;7.48;100.00;102337.13;4992602;28;20113;-48
2021/11/24 09:50:07;;;;;;;29.55;22.55;;;;;;;7.43;100.00;102329.63;4992815;28;20038;-44
2021/11/24 09:52:35;;;;;;;31.58;23.27;;;;;;;7.45;100.00;102337.53;4995039;28;20121;-47
2021/11/24 09:55:05;;;;;;;25.77;20.90;;;;;;;7.47;100.00;102328.13;4982369;28;20054;-49
2021/11/24 09:57:32;;;;;;;23.58;19.80;;;;;;;7.52;100.00;102323.97;4992552;28;20043;-48
2021/11/24 10:00:00;;;;;;;31.75;25.02;;;;;;;7.58;100.00;102321.25;4992463;28;20034;-49
2021/11/24 10:02:38;;;;;;;38.20;28.23;;;;;;;7.77;100.00;102313.25;4993492;28;20117;-48
2021/11/24 10:05:07;;;;;;;36.08;27.23;;;;;;;7.92;100.00;102302.19;4992801;28;20049;-48
2021/11/24 10:07:34;;;;;;;36.17;28.00;;;;;;;7.95;100.00;102299.88;4992898;28;20049;-48
2021/11/24 10:10:06;;;;;;;30.67;24.65;;;;;;;8.04;100.00;102298.59;4991563;28;20485;-46
2021/11/24 10:12:34;;;;;;;29.83;22.38;;;;;;;8.03;100.00;102299.66;4994005;28;20053;-45
2021/11/24 10:15:03;;;;;;;27.25;21.60;;;;;;;7.95;100.00;102296.31;4992289;28;20394;-47
2021/11/24 10:17:31;;;;;;;26.67;21.30;;;;;;;7.88;100.00;102301.78;4992607;28;20050;-49
2021/11/24 10:20:08;;;;;;;27.35;22.08;;;;;;;7.84;100.00;102292.38;4992321;28;20043;-49
2021/11/24 10:22:37;;;;;;;25.58;19.08;;;;;;;7.80;100.00;102291.97;4993515;28;20039;-44
2021/11/24 10:25:11;;;;;;;26.98;21.10;;;;;;;7.78;100.00;102290.53;4984189;28;20069;-47
2021/11/24 10:27:40;;;;;;;24.77;19.73;;;;;;;7.76;100.00;102279.88;4992273;28;20038;-49
2021/11/24 10:30:28;;;;;;;26.23;21.52;;;;;;;7.75;100.00;102280.13;4992660;28;20248;-47
2021/11/24 10:33:14;;;;;;;25.40;19.83;;;;;;;7.74;100.00;102273.84;4992434;28;20042;-49
2021/11/24 10:35:42;;;;;;;27.73;20.58;;;;;;;7.75;100.00;102274.69;4992546;28;20401;-47
2021/11/24 10:38:18;;;;;;;25.73;20.95;;;;;;;7.71;100.00;102268.00;4991593;28;20050;-48
2021/11/24 10:40:47;;;;;;;28.40;22.27;;;;;;;7.71;100.00;102255.28;4992577;28;20039;-49
2021/11/24 10:43:16;;;;;;;25.00;19.60;;;;;;;7.73;100.00;102255.06;4995023;28;20047;-48
2021/11/24 10:45:55;;;;;;;27.80;20.27;;;;;;;7.75;100.00;102247.56;4997407;28;20054;-49
2021/11/24 10:48:30;;;;;;;24.80;19.73;;;;;;;7.76;100.00;102247.31;4983528;28;20512;-49
2021/11/24 10:51:01;;;;;;;24.73;19.70;;;;;;;7.76;100.00;102235.66;4994428;28;20069;-47
2021/11/24 10:53:30;;;;;;;26.38;19.75;;;;;;;7.76;100.00;102228.34;4996324;28;20050;-49
2021/11/24 10:56:07;;;;;;;25.98;20.10;;;;;;;7.78;100.00;102222.69;4997110;28;20054;-49
2021/11/24 10:58:39;;;;;;;31.55;22.83;;;;;;;7.81;100.00;102219.56;5004010;28;20129;-48
2021/11/24 11:01:07;;;;;;;25.98;21.10;;;;;;;7.78;100.00;102214.56;4995264;28;20042;-47
2021/11/24 11:03:42;;;;;;;29.17;23.25;;;;;;;7.78;100.00;102211.84;4995775;28;20485;-46
2021/11/24 11:06:30;;;;;;;29.42;23.13;;;;;;;7.75;100.00;102202.25;4996607;28;20412;-47
2021/11/24 11:08:59;;;;;;;28.55;22.95;;;;;;;7.72;100.00;102201.84;4994994;28;20081;-48
2021/11/24 11:11:28;;;;;;;28.80;22.13;;;;;;;7.72;100.00;102202.69;4996003;28;20054;-49
2021/11/24 11:14:25;;;;;;;32.00;23.98;;;;;;;7.76;100.00;102194.94;4995776;28;20049;-48
2021/11/24 11:16:55;;;;;;;29.73;23.48;;;;;;;7.80;100.00;102194.31;4996284;28;20038;-51
2021/11/24 11:19:42;;;;;;;32.30;25.00;;;;;;;7.83;100.00;102184.91;4995878;28;20050;-48
2021/11/24 11:22:14;;;;;;;30.17;23.02;;;;;;;7.85;100.00;102190.94;4995222;28;20038;-48